KELN/ELN METAR and TAF weather

Enter ICAO airport designator
Station Type Date Time Source
KELN METAR 2018/10/21 02:53 UTC NOAA

KELN 210253Z AUTO 08005KT 8SM CLR 09/03 A3008 RMK AO2 SLP196 T00940028 53003


Station Type Date Time Source
KELN Decoded METAR 2018/10/21 02:53 UTC NOAA

ELLENSBURG BOWERS FIELD, WA, United States (KELN) 47-02N 120-32W 519M
Oct 20, 2018 - 10:53 PM EDT / 2018.10.21 0253 UTC
Wind: from the E (080 degrees) at 6 MPH (5 KT):0
Visibility: 8 mile(s):0
Sky conditions: clear
Temperature: 48.9 F (9.4 C)
Dew Point: 37.0 F (2.8 C)
Relative Humidity: 63%
Pressure (altimeter): 30.08 in. Hg (1018 hPa)
Pressure tendency: 0.01 inches (0.3 hPa) higher than three hours ago
ob: KELN 210253Z AUTO 08005KT 8SM CLR 09/03 A3008 RMK AO2 SLP196 T00940028 53003
cycle: 3

Station Type Date Time Source
KELN TAF UTC NOAA

Error!


Example: see airport list